Time;durP1;ratioP1;P1;durP2;ratioP2;P2;SDS_P1;SDS_P2;PMS_P1;PMS_P2;Temp;Humidity;BMP_temperature;BMP_pressure;BME280_temperature;BME280_humidity;BME280_pressure;Samples;Min_cycle;Max_cycle;Signal;HPM_P1;HPM_P2
2022/01/25 00:08:23;;;;;;;12.55;11.75;;;;;;;4.63;85.86;101719.06;10366649;28;20053;-74
2022/01/25 00:31:05;;;;;;;11.50;10.77;;;;;;;4.69;84.03;101709.66;10386320;28;20041;-72
2022/01/25 00:36:10;;;;;;;15.25;14.25;;;;;;;4.61;84.90;101707.75;10384964;28;20054;-73
2022/01/25 00:41:11;;;;;;;17.23;16.08;;;;;;;4.36;87.08;101702.03;10386298;28;20105;-73
2022/01/25 00:46:14;;;;;;;16.10;15.00;;;;;;;4.61;85.16;101713.81;10385028;28;20076;-73
2022/01/25 00:56:38;;;;;;;17.17;15.98;;;;;;;4.52;86.28;101711.91;10386031;28;20045;-73
2022/01/25 01:01:40;;;;;;;17.55;16.27;;;;;;;4.48;86.75;101711.81;10383952;28;20046;-73
2022/01/25 01:06:44;;;;;;;18.17;16.83;;;;;;;4.34;87.47;101714.16;10383540;28;20212;-73
2022/01/25 01:11:55;;;;;;;17.42;16.23;;;;;;;4.47;86.89;101700.53;10386089;28;20041;-74
2022/01/25 01:38:21;;;;;;;19.77;18.38;;;;;;;4.13;89.20;101672.06;10379754;28;20058;-74
2022/01/25 01:54:14;;;;;;;18.65;17.25;;;;;;;4.10;89.09;101659.84;10306712;28;20600;-74
2022/01/25 01:59:16;;;;;;;19.65;18.25;;;;;;;4.13;89.29;101659.94;10292630;28;20137;-74
2022/01/25 02:04:19;;;;;;;18.50;17.20;;;;;;;4.04;89.82;101651.94;10288236;28;20110;-74
2022/01/25 02:09:20;;;;;;;18.75;17.45;;;;;;;3.97;89.98;101652.63;10288734;28;20070;-73
2022/01/25 02:14:22;;;;;;;19.55;17.63;;;;;;;3.94;90.55;101639.56;10272025;28;20113;-74
2022/01/25 02:24:45;;;;;;;17.45;16.15;;;;;;;3.89;91.19;101644.66;10312321;28;20056;-73
2022/01/25 02:29:46;;;;;;;17.50;16.20;;;;;;;3.87;91.02;101641.16;10371354;28;20056;-73
2022/01/25 02:34:48;;;;;;;17.52;16.23;;;;;;;3.79;92.23;101640.13;10371093;28;20045;-73
2022/01/25 02:39:49;;;;;;;18.05;16.55;;;;;;;3.91;91.31;101631.72;10373209;28;20064;-73
2022/01/25 02:44:51;;;;;;;19.75;18.25;;;;;;;3.87;91.83;101628.16;10370663;28;20050;-73
2022/01/25 02:49:53;;;;;;;17.77;16.45;;;;;;;3.75;92.24;101627.88;10370370;28;20052;-74
2022/01/25 02:54:55;;;;;;;18.02;16.40;;;;;;;3.68;92.49;101626.03;10366732;28;20149;-73
2022/01/25 03:00:02;;;;;;;17.85;16.33;;;;;;;3.68;91.95;101613.00;10386225;28;20100;-74
2022/01/25 03:05:05;;;;;;;;;;;;;;;3.60;91.93;101605.03;10387173;28;20476;-73
2022/01/25 03:10:07;;;;;;;15.65;14.35;;;;;;;3.59;91.87;101610.22;10385098;28;19921;-73
2022/01/25 03:20:35;;;;;;;15.82;14.48;;;;;;;3.60;91.86;101604.16;10387555;28;20050;-73
2022/01/25 03:25:37;;;;;;;16.65;15.15;;;;;;;3.51;91.59;101603.13;10389706;28;20075;-73
2022/01/25 03:30:38;;;;;;;15.27;13.98;;;;;;;3.54;91.58;101605.78;10369975;28;20053;-73
2022/01/25 03:35:40;;;;;;;14.60;13.27;;;;;;;3.49;91.32;101603.91;10368452;28;20081;-73
2022/01/25 03:40:42;;;;;;;12.40;11.40;;;;;;;3.39;91.38;101602.84;10366082;28;20091;-73
2022/01/25 03:45:57;;;;;;;12.27;11.27;;;;;;;3.42;91.75;101602.91;10386481;28;20045;-73
2022/01/25 03:50:59;;;;;;;12.63;11.57;;;;;;;3.36;91.59;101591.47;10383940;28;20038;-73
2022/01/25 03:56:00;;;;;;;12.40;11.43;;;;;;;3.41;90.85;101589.84;10367308;28;20103;-74
2022/01/25 04:01:02;;;;;;;11.18;10.18;;;;;;;3.26;91.29;101588.69;10384443;28;20096;-74
2022/01/25 04:06:05;;;;;;;12.27;11.32;;;;;;;3.31;91.00;101578.38;10367750;28;20415;-74
2022/01/25 04:11:06;;;;;;;12.23;11.10;;;;;;;3.28;90.80;101571.41;10366313;28;20060;-74
2022/01/25 04:16:14;;;;;;;12.10;11.10;;;;;;;3.20;91.31;101572.09;10349177;28;20058;-74
2022/01/25 04:26:35;;;;;;;12.68;11.68;;;;;;;3.27;90.96;101571.34;10385104;28;20053;-73
2022/01/25 04:31:38;;;;;;;12.65;11.55;;;;;;;3.25;91.46;101565.25;10382514;28;20050;-73
2022/01/25 04:52:32;;;;;;;14.43;13.30;;;;;;;3.36;90.02;101578.50;10383155;28;20049;-73
2022/01/25 04:57:47;;;;;;;14.68;13.48;;;;;;;3.17;91.17;101566.81;10380791;28;20096;-74
2022/01/25 05:08:03;;;;;;;14.32;13.13;;;;;;;3.26;90.98;101580.00;10382155;28;20050;-73
2022/01/25 05:13:16;;;;;;;16.58;15.18;;;;;;;3.36;89.72;101579.38;10383852;28;20053;-74
2022/01/25 05:18:24;;;;;;;15.20;13.57;;;;;;;3.27;90.40;101581.75;10372137;28;20073;-73
2022/01/25 05:23:29;;;;;;;15.35;14.05;;;;;;;3.26;90.75;101577.41;10392561;28;20045;-73
2022/01/25 05:28:32;;;;;;;15.48;14.18;;;;;;;3.17;91.35;101579.81;10391221;28;20105;-73
2022/01/25 05:33:33;;;;;;;15.30;14.00;;;;;;;3.19;91.86;101591.13;10393728;28;20096;-72
2022/01/25 05:38:37;;;;;;;16.42;14.98;;;;;;;3.19;92.07;101593.72;10391260;28;20080;-73
2022/01/25 05:48:54;;;;;;;16.20;14.80;;;;;;;3.30;92.44;101592.22;10373445;28;20088;-72
2022/01/25 05:53:55;;;;;;;16.52;15.02;;;;;;;3.16;92.90;101599.72;10393550;28;20114;-73
2022/01/25 05:58:57;;;;;;;24.27;16.10;;;;;;;3.03;93.79;101595.06;10390370;28;20058;-73
2022/01/25 06:03:59;;;;;;;15.98;14.57;;;;;;;3.02;94.65;101593.31;10388588;28;20053;-73
2022/01/25 06:09:00;;;;;;;14.93;13.57;;;;;;;3.08;94.16;101587.38;10389125;28;20081;-73
2022/01/25 06:14:05;;;;;;;16.80;15.40;;;;;;;2.95;94.91;101591.41;10391494;28;20068;-73
2022/01/25 06:19:07;;;;;;;15.00;13.43;;;;;;;3.01;93.95;101589.84;10375241;28;20419;-73
2022/01/25 06:24:10;;;;;;;14.18;12.98;;;;;;;3.06;93.37;101591.69;10390992;28;20045;-74
2022/01/25 06:29:16;;;;;;;18.08;13.27;;;;;;;2.96;93.51;101595.75;10389781;28;20550;-72
2022/01/25 06:34:18;;;;;;;15.73;14.23;;;;;;;2.99;93.15;101595.84;10373921;28;20054;-73
2022/01/25 06:39:21;;;;;;;15.35;14.00;;;;;;;3.01;93.34;101605.44;10357637;28;20120;-72
2022/01/25 06:44:28;;;;;;;15.85;13.68;;;;;;;3.07;92.87;101607.28;10388399;28;20100;-73
2022/01/25 06:49:31;;;;;;;15.60;14.30;;;;;;;3.04;93.16;101617.59;10388829;28;20595;-73
2022/01/25 06:54:43;;;;;;;18.48;16.75;;;;;;;2.97;93.87;101608.78;10387982;28;20480;-73
2022/01/25 06:59:48;;;;;;;17.85;16.20;;;;;;;3.02;92.57;101609.78;10390431;28;20056;-73
2022/01/25 07:04:49;;;;;;;18.95;16.98;;;;;;;3.04;92.75;101610.69;10390852;28;20403;-72
2022/01/25 07:09:51;;;;;;;20.23;16.35;;;;;;;3.09;92.32;101618.59;10386217;28;20050;-73
2022/01/25 07:14:53;;;;;;;19.10;17.27;;;;;;;2.83;93.54;101615.34;10419655;23;20121;-70
2022/01/25 07:19:54;;;;;;;21.80;19.60;;;;;;;3.07;92.07;101614.22;10402560;28;20449;-70
2022/01/25 07:24:56;;;;;;;20.33;18.15;;;;;;;3.12;92.12;101618.66;10417868;28;20387;-70
2022/01/25 07:29:57;;;;;;;21.77;19.60;;;;;;;3.07;91.99;101625.47;10418520;28;20056;-70
2022/01/25 07:34:59;;;;;;;23.45;20.98;;;;;;;3.02;92.04;101627.09;10418747;28;20099;-71
2022/01/25 07:40:05;;;;;;;22.30;20.33;;;;;;;3.07;91.23;101616.81;10400205;28;20057;-71
2022/01/25 07:45:11;;;;;;;24.15;20.25;;;;;;;3.07;91.15;101603.81;10418973;28;20395;-71
2022/01/25 07:50:15;;;;;;;23.63;21.33;;;;;;;2.94;92.11;101613.03;10385086;28;20049;-70
2022/01/25 07:55:18;;;;;;;24.50;22.20;;;;;;;3.10;91.20;101612.56;10417531;28;20046;-70
2022/01/25 08:00:20;;;;;;;23.23;21.20;;;;;;;3.19;90.21;101623.19;10417777;28;20052;-70
2022/01/25 08:05:24;;;;;;;20.67;18.98;;;;;;;3.22;90.27;101614.56;10418861;28;20030;-71
2022/01/25 08:10:43;;;;;;;24.38;22.05;;;;;;;3.17;90.60;101619.66;10417867;28;20506;-71
2022/01/25 08:16:02;;;;;;;28.73;22.83;;;;;;;2.96;91.97;101607.00;10398492;28;20085;-70
2022/01/25 08:21:18;;;;;;;30.15;21.92;;;;;;;3.07;91.74;101594.31;10405311;28;20053;-71
2022/01/25 08:26:41;;;;;;;24.65;21.45;;;;;;;3.16;91.46;101589.31;10367742;28;20111;-70
2022/01/25 08:32:06;;;;;;;25.60;21.92;;;;;;;3.19;91.35;101602.41;10417849;28;20056;-70
2022/01/25 08:37:33;;;;;;;24.80;22.15;;;;;;;3.26;91.93;101588.69;10262754;28;20053;-69
2022/01/25 08:42:40;;;;;;;24.50;22.00;;;;;;;3.28;91.12;101593.94;10419043;28;20046;-69
2022/01/25 08:48:03;;;;;;;24.83;22.30;;;;;;;3.37;90.79;101593.25;10382807;28;20053;-69
2022/01/25 08:53:10;;;;;;;27.48;21.40;;;;;;;3.31;91.25;101587.91;10418524;28;20045;-70
2022/01/25 08:58:42;;;;;;;24.42;22.02;;;;;;;3.44;90.87;101598.63;10275755;28;20512;-71
2022/01/25 09:03:44;;;;;;;23.13;20.92;;;;;;;3.23;91.87;101592.91;10291851;28;20057;-71
2022/01/25 09:08:45;;;;;;;25.08;21.52;;;;;;;3.46;90.76;101596.06;10290717;28;20047;-70
2022/01/25 09:13:47;;;;;;;24.08;21.77;;;;;;;3.24;92.23;101597.31;10291305;28;20055;-70
2022/01/25 09:18:48;;;;;;;24.33;22.00;;;;;;;3.28;92.42;101594.81;10274039;28;20059;-70
2022/01/25 09:23:50;;;;;;;24.33;21.80;;;;;;;3.48;91.82;101596.97;10291665;28;20171;-70
2022/01/25 09:28:54;;;;;;;23.98;21.75;;;;;;;3.51;91.12;101591.84;10290566;28;20502;-71
2022/01/25 09:33:56;;;;;;;23.38;20.90;;;;;;;3.48;90.94;101597.84;10397910;28;20046;-71
2022/01/25 09:38:58;;;;;;;25.02;22.88;;;;;;;3.38;92.93;101615.81;10415365;28;20103;-71
2022/01/25 09:43:59;;;;;;;25.67;23.00;;;;;;;3.15;94.17;101600.56;10398169;28;20099;-71
2022/01/25 09:49:01;;;;;;;33.08;26.00;;;;;;;3.04;96.05;101608.09;10417093;28;20056;-70
2022/01/25 09:54:03;;;;;;;34.03;28.05;;;;;;;2.94;98.08;101613.91;10400008;28;20041;-70
2022/01/25 09:59:04;;;;;;;29.20;25.83;;;;;;;2.92;98.30;101615.59;10416309;28;20049;-70
2022/01/25 10:04:25;;;;;;;32.75;25.67;;;;;;;2.98;99.16;101610.53;10419802;28;20099;-70
2022/01/25 10:09:29;;;;;;;24.27;22.02;;;;;;;2.97;98.85;101607.91;10421784;28;20457;-69
2022/01/25 10:14:30;;;;;;;28.83;23.70;;;;;;;2.98;99.11;101607.94;10421924;28;20044;-70
2022/01/25 10:19:41;;;;;;;24.15;21.70;;;;;;;2.88;99.52;101608.56;10405368;28;20054;-69
2022/01/25 10:24:43;;;;;;;22.77;20.42;;;;;;;2.92;99.00;101620.78;10420862;28;20486;-70
2022/01/25 10:29:47;;;;;;;23.33;21.00;;;;;;;2.82;99.39;101613.59;10403085;28;20530;-70
2022/01/25 10:34:50;;;;;;;23.33;20.92;;;;;;;2.73;100.00;101606.44;10420646;28;20041;-70
2022/01/25 10:39:53;;;;;;;23.65;21.10;;;;;;;2.78;100.00;101599.66;10420429;28;20045;-70
2022/01/25 10:45:09;;;;;;;19.05;17.33;;;;;;;2.66;99.58;101604.56;10403126;28;20050;-69
2022/01/25 10:50:15;;;;;;;19.10;17.45;;;;;;;2.74;98.97;101602.13;10403625;28;20053;-69
2022/01/25 10:55:19;;;;;;;17.45;15.70;;;;;;;2.73;98.32;101605.56;10422420;28;20044;-70
2022/01/25 11:00:21;;;;;;;17.92;16.27;;;;;;;2.59;98.83;101607.81;10422756;28;20045;-71
2022/01/25 11:05:23;;;;;;;16.23;14.73;;;;;;;2.58;98.41;101602.59;10420842;28;20049;-70
2022/01/25 11:10:24;;;;;;;17.15;15.35;;;;;;;2.69;97.97;101602.00;10419722;28;20103;-69
2022/01/25 11:15:26;;;;;;;18.50;16.58;;;;;;;2.68;98.10;101594.19;10419590;28;20037;-70
2022/01/25 11:20:28;;;;;;;16.88;15.38;;;;;;;2.87;97.14;101587.72;10406882;28;20080;-69
2022/01/25 11:25:33;;;;;;;20.80;17.15;;;;;;;2.77;98.16;101586.63;10421470;28;20042;-69
2022/01/25 11:30:38;;;;;;;19.85;17.58;;;;;;;2.71;98.35;101579.59;10405681;28;20049;-70
2022/01/25 11:35:41;;;;;;;20.20;17.40;;;;;;;2.80;97.89;101583.25;10405731;28;20041;-70
2022/01/25 11:40:48;;;;;;;18.02;16.25;;;;;;;3.00;96.62;101571.59;10406670;28;20045;-69
2022/01/25 11:45:50;;;;;;;18.38;16.48;;;;;;;2.89;97.26;101575.69;10407056;28;20099;-69
2022/01/25 11:50:52;;;;;;;19.75;17.83;;;;;;;2.78;98.22;101571.09;10405445;28;20456;-69
2022/01/25 11:55:54;;;;;;;18.88;17.13;;;;;;;2.77;98.21;101578.84;10426423;28;20045;-71
2022/01/25 12:01:00;;;;;;;20.75;18.30;;;;;;;2.70;98.75;101561.34;10428634;28;20406;-70
2022/01/25 12:06:13;;;;;;;20.25;18.17;;;;;;;2.74;99.33;101568.38;10401567;28;20096;-70
2022/01/25 12:11:42;;;;;;;20.13;18.08;;;;;;;2.73;98.88;101564.03;10401258;28;20057;-70
2022/01/25 12:16:56;;;;;;;21.15;18.60;;;;;;;2.78;98.26;101560.69;10416833;28;20061;-69
2022/01/25 12:22:01;;;;;;;23.00;19.23;;;;;;;2.85;97.69;101556.53;10417472;28;20045;-69
2022/01/25 12:32:36;;;;;;;23.58;19.70;;;;;;;2.94;96.64;101548.09;10416326;28;20483;-70
2022/01/25 12:37:43;;;;;;;28.83;20.92;;;;;;;2.87;95.60;101544.47;10400650;28;20169;-69
2022/01/25 12:42:46;;;;;;;25.25;22.25;;;;;;;2.83;96.67;101546.94;10399397;28;20045;-70
2022/01/25 12:48:00;;;;;;;23.90;20.42;;;;;;;2.86;95.79;101534.91;10398831;28;20060;-70
2022/01/25 12:53:04;;;;;;;22.67;19.13;;;;;;;2.61;93.97;101537.75;10398850;28;20411;-69
2022/01/25 12:58:06;;;;;;;27.92;20.95;;;;;;;2.50;95.04;101538.38;10415893;28;20190;-70
2022/01/25 13:03:20;;;;;;;31.35;21.92;;;;;;;2.31;95.68;101533.56;10398669;28;20445;-69
2022/01/25 13:08:56;;;;;;;36.70;21.27;;;;;;;2.47;96.35;101522.72;10397467;28;20053;-69
2022/01/25 13:14:50;;;;;;;29.55;19.95;;;;;;;2.45;96.81;101519.22;10469095;23;20091;-79
2022/01/25 13:19:37;;;;;;;39.95;24.00;;;;;;;2.20;97.55;101512.53;10464873;28;20139;-81
2022/01/25 13:24:55;;;;;;;37.50;23.52;;;;;;;2.17;98.62;101503.78;10447225;28;20116;-81
2022/01/25 13:35:36;;;;;;;40.63;23.67;;;;;;;2.40;98.06;101502.66;10493746;28;20041;-80
2022/01/25 13:46:18;;;;;;;46.53;24.52;;;;;;;2.24;98.46;101497.91;10502139;28;20041;-79
2022/01/25 13:51:23;;;;;;;42.58;23.02;;;;;;;2.25;97.95;101490.16;10502597;28;20067;-78
2022/01/25 13:56:28;;;;;;;38.95;23.88;;;;;;;2.41;96.09;101493.16;10502065;28;20487;-79
2022/01/25 14:01:32;;;;;;;36.50;23.52;;;;;;;2.33;95.66;101500.75;10501317;28;20037;-79
2022/01/25 14:06:40;;;;;;;43.35;22.48;;;;;;;2.38;95.25;101499.13;10501688;28;20042;-79
2022/01/25 14:22:43;;;;;;;36.65;22.30;;;;;;;2.37;93.84;101506.88;10463783;28;20053;-81
2022/01/25 14:27:40;;;;;;;38.35;22.20;;;;;;;2.26;93.98;101507.50;10476805;28;20045;-81
2022/01/25 14:32:41;;;;;;;45.80;25.08;;;;;;;2.31;94.05;101512.81;10460871;28;20037;-81
2022/01/25 14:37:49;;;;;;;48.08;26.63;;;;;;;2.21;94.45;101514.31;10480361;28;20057;-80
2022/01/25 14:42:50;;;;;;;54.55;27.70;;;;;;;2.23;94.09;101510.00;10476097;28;20055;-78
2022/01/25 14:47:54;;;;;;;60.10;28.60;;;;;;;2.17;94.63;101516.75;10500094;28;20060;-78
2022/01/25 14:53:14;;;;;;;54.53;27.42;;;;;;;2.32;94.32;101517.16;10505261;28;20049;-80
2022/01/25 15:03:24;;;;;;;55.92;28.30;;;;;;;2.49;91.62;101515.00;10495698;28;20047;-78
2022/01/25 15:08:28;;;;;;;42.72;24.95;;;;;;;2.49;91.97;101517.59;10493972;28;20067;-78
2022/01/25 15:13:35;;;;;;;42.50;23.98;;;;;;;2.46;92.29;101517.50;10495939;28;20037;-78
2022/01/25 15:18:40;;;;;;;41.13;24.02;;;;;;;2.70;89.76;101527.59;10494567;28;20052;-79
2022/01/25 15:23:48;;;;;;;46.05;25.70;;;;;;;2.49;91.49;101522.78;10475893;28;20076;-80
2022/01/25 15:28:55;;;;;;;65.05;32.90;;;;;;;2.45;90.98;101518.34;10464365;28;20114;-80
2022/01/25 15:34:05;;;;;;;44.13;24.52;;;;;;;2.45;91.27;101515.75;10460519;28;20040;-81
2022/01/25 15:39:12;;;;;;;70.00;36.30;;;;;;;2.44;90.66;101514.00;10477482;28;20040;-79
2022/01/25 15:44:15;;;;;;;59.28;29.65;;;;;;;2.35;91.19;101513.78;10462607;28;20052;-79
2022/01/25 15:49:18;;;;;;;62.47;28.52;;;;;;;2.40;91.06;101514.75;10455606;28;20072;-79
2022/01/25 15:54:19;;;;;;;53.67;26.60;;;;;;;2.31;92.47;101510.22;10488881;28;20101;-79
2022/01/25 15:59:22;;;;;;;62.42;27.80;;;;;;;2.36;90.28;101521.59;10479957;28;20037;-80
2022/01/25 16:04:27;;;;;;;51.45;26.98;;;;;;;2.20;92.54;101522.03;10478142;28;20044;-79
2022/01/25 16:09:29;;;;;;;70.93;29.63;;;;;;;2.09;93.04;101528.66;10476112;28;20044;-79
2022/01/25 16:14:30;;;;;;;61.30;29.90;;;;;;;2.10;93.59;101536.47;10458332;28;20509;-80
2022/01/25 16:19:33;;;;;;;74.13;31.23;;;;;;;2.10;93.69;101535.59;10474265;28;20037;-80
2022/01/25 16:24:35;;;;;;;64.78;29.38;;;;;;;2.25;93.30;101538.59;10472629;28;20041;-79
2022/01/25 16:29:37;;;;;;;74.25;31.38;;;;;;;2.07;93.52;101541.56;10472606;28;20123;-79
2022/01/25 16:34:39;;;;;;;63.97;28.70;;;;;;;2.18;93.41;101545.34;10472915;28;20055;-81
2022/01/25 16:39:41;;;;;;;59.72;28.65;;;;;;;2.01;94.35;101554.38;10471883;28;20148;-80
2022/01/25 16:44:44;;;;;;;60.90;28.73;;;;;;;2.03;94.09;101553.56;10440101;28;20407;-80
2022/01/25 16:49:49;;;;;;;;;;;;;;;2.07;94.07;101554.53;10475809;28;20461;-81
2022/01/25 16:54:51;;;;;;;56.17;26.50;;;;;;;2.31;91.63;101546.53;10472941;28;19988;-81
2022/01/25 17:00:17;;;;;;;61.35;29.48;;;;;;;2.13;92.51;101559.91;10474296;28;20052;-81
2022/01/25 17:05:19;;;;;;;62.90;27.38;;;;;;;2.20;93.47;101559.22;10467314;28;20052;-81
2022/01/25 17:10:30;;;;;;;58.22;28.33;;;;;;;2.21;92.52;101552.31;10478942;28;20108;-81
2022/01/25 17:15:32;;;;;;;67.95;29.67;;;;;;;2.18;92.52;101553.13;10487443;28;20075;-80
2022/01/25 17:20:34;;;;;;;62.97;29.13;;;;;;;2.23;92.69;101548.06;10476537;28;20151;-79
2022/01/25 17:25:36;;;;;;;43.83;23.45;;;;;;;2.37;90.18;101545.81;10508981;28;20056;-79
2022/01/25 17:30:39;;;;;;;54.15;25.88;;;;;;;2.38;89.83;101555.34;10486920;28;20049;-80
2022/01/25 17:35:40;;;;;;;53.97;26.05;;;;;;;2.47;89.12;101551.28;10474344;28;20041;-80
2022/01/25 17:40:44;;;;;;;60.85;26.55;;;;;;;2.30;90.61;101557.75;10454273;28;20049;-80
2022/01/25 17:45:49;;;;;;;;;;;;;;;2.26;90.43;101555.94;10479145;28;20051;-80
2022/01/25 17:50:51;;;;;;;64.68;27.35;;;;;;;2.14;91.18;101553.88;10478983;28;19928;-81
2022/01/25 17:56:04;;;;;;;73.72;30.02;;;;;;;2.08;91.74;101558.00;10498896;28;20071;-80
2022/01/25 18:01:13;;;;;;;57.17;26.95;;;;;;;2.36;89.81;101549.25;10510304;28;20072;-80
2022/01/25 18:06:18;;;;;;;61.40;29.17;;;;;;;2.27;90.31;101558.56;10508600;28;20064;-79
2022/01/25 18:11:27;;;;;;;60.45;28.55;;;;;;;2.24;90.47;101570.56;10479638;28;20102;-79
2022/01/25 18:16:31;;;;;;;59.33;27.90;;;;;;;2.18;90.57;101563.50;10494078;28;20029;-81
2022/01/25 18:21:41;;;;;;;70.05;31.42;;;;;;;2.35;89.97;101563.09;10494003;28;20076;-79
2022/01/25 18:26:46;;;;;;;71.13;29.35;;;;;;;2.31;90.55;101563.84;10464944;28;20068;-79
2022/01/25 18:31:51;;;;;;;60.90;28.33;;;;;;;2.27;90.12;101561.16;10467316;28;20132;-78
2022/01/25 18:37:00;;;;;;;67.28;28.80;;;;;;;2.22;90.69;101554.09;10502063;28;20045;-80
2022/01/25 18:42:09;;;;;;;65.97;29.55;;;;;;;2.24;90.53;101558.47;10504586;28;20040;-81
2022/01/25 18:47:15;;;;;;;65.32;28.63;;;;;;;2.37;89.65;101557.06;10503261;28;20056;-80
2022/01/25 18:52:17;;;;;;;61.95;29.02;;;;;;;2.14;90.73;101565.97;10480845;28;20053;-79
2022/01/25 18:57:23;;;;;;;61.90;29.13;;;;;;;2.22;90.79;101556.69;10460747;28;20112;-81
2022/01/25 19:02:37;;;;;;;62.53;29.15;;;;;;;1.95;91.74;101564.59;10492760;28;20049;-81
2022/01/25 19:07:39;;;;;;;63.05;28.20;;;;;;;1.83;93.95;101565.13;10494861;28;20083;-80
2022/01/25 19:12:41;;;;;;;61.30;29.05;;;;;;;1.94;93.10;101563.69;10475958;28;20045;-79
2022/01/25 19:17:43;;;;;;;65.03;28.33;;;;;;;1.90;92.98;101556.66;10523827;23;20045;-81
2022/01/25 19:22:45;;;;;;;62.90;27.95;;;;;;;2.13;92.51;101559.91;10475495;28;20490;-82
2022/01/25 19:27:46;;;;;;;60.88;28.73;;;;;;;1.96;92.84;101564.63;10476210;28;20048;-81
2022/01/25 19:32:51;;;;;;;63.38;28.25;;;;;;;1.92;92.95;101560.19;10477175;28;20045;-82
2022/01/25 19:37:53;;;;;;;54.65;27.90;;;;;;;2.31;90.63;101556.94;10478199;28;20475;-81
2022/01/25 19:42:55;;;;;;;55.22;27.85;;;;;;;2.24;89.91;101561.06;10476755;28;20502;-82
2022/01/25 19:47:57;;;;;;;55.38;27.77;;;;;;;2.18;90.47;101557.44;10475294;28;20052;-81
2022/01/25 19:53:05;;;;;;;59.00;27.77;;;;;;;1.89;92.52;101552.31;10472504;28;20094;-81
2022/01/25 19:58:09;;;;;;;70.65;29.50;;;;;;;1.71;94.07;101559.59;10470277;28;20067;-80
2022/01/25 20:03:11;;;;;;;62.00;30.20;;;;;;;1.71;94.59;101557.00;10469908;28;20041;-81
2022/01/25 20:08:12;;;;;;;83.82;34.47;;;;;;;1.76;93.92;101550.22;10473134;28;20059;-81
2022/01/25 20:13:18;;;;;;;73.80;31.67;;;;;;;2.18;91.48;101542.75;10478749;28;20072;-81
2022/01/25 20:18:19;;;;;;;71.40;31.52;;;;;;;2.08;91.23;101547.63;10462740;28;20140;-81
2022/01/25 20:23:51;;;;;;;68.95;29.85;;;;;;;1.84;92.77;101545.25;10476665;28;20045;-81
2022/01/25 20:28:56;;;;;;;63.67;29.13;;;;;;;1.83;92.43;101536.59;10474437;28;20057;-82
2022/01/25 20:33:57;;;;;;;73.38;30.60;;;;;;;1.91;92.07;101540.28;10478753;28;20538;-80
2022/01/25 20:38:59;;;;;;;67.40;29.70;;;;;;;2.00;91.33;101542.25;10461336;28;20049;-79
2022/01/25 20:44:01;;;;;;;66.53;30.23;;;;;;;1.84;92.39;101540.94;10477405;28;20064;-81
2022/01/25 20:49:05;;;;;;;64.47;30.75;;;;;;;1.97;91.67;101535.25;10482738;28;20140;-82
2022/01/25 20:54:07;;;;;;;60.90;27.73;;;;;;;2.19;90.31;101541.03;10502528;28;20070;-82
2022/01/25 20:59:08;;;;;;;56.47;26.95;;;;;;;2.03;90.09;101531.94;10500965;28;20475;-83
2022/01/25 21:09:15;;;;;;;51.30;24.98;;;;;;;2.07;90.01;101538.09;10503852;28;20148;-81
2022/01/25 21:14:17;;;;;;;50.90;25.05;;;;;;;1.77;91.69;101526.94;10501752;28;20155;-79
2022/01/25 21:19:18;;;;;;;60.33;25.52;;;;;;;1.82;92.05;101533.97;10497328;28;20032;-81
2022/01/25 21:24:22;;;;;;;52.00;24.70;;;;;;;1.98;90.81;101526.63;10485389;28;20052;-81
2022/01/25 21:29:25;;;;;;;51.90;24.67;;;;;;;2.02;90.67;101509.44;10469816;28;20056;-80
2022/01/25 21:34:26;;;;;;;56.15;25.83;;;;;;;1.82;91.93;101514.13;10469377;28;20068;-80
2022/01/25 21:39:28;;;;;;;55.92;25.75;;;;;;;1.89;91.29;101513.41;10474337;28;20091;-80
2022/01/25 21:44:30;;;;;;;51.38;25.88;;;;;;;1.73;91.89;101513.88;10469422;28;20049;-81
2022/01/25 21:49:31;;;;;;;52.53;26.02;;;;;;;1.70;91.73;101506.88;10467722;28;20560;-82
2022/01/25 21:54:33;;;;;;;54.65;27.70;;;;;;;1.70;91.64;101504.28;10469833;28;20441;-80
2022/01/25 21:59:36;;;;;;;59.42;26.48;;;;;;;1.72;92.02;101507.78;10474364;28;20560;-83
2022/01/25 22:04:43;;;;;;;67.82;28.17;;;;;;;1.64;92.32;101506.72;10504869;28;20040;-81
2022/01/25 22:09:47;;;;;;;59.22;28.50;;;;;;;1.84;91.33;101499.47;10510828;28;20040;-81
2022/01/25 22:14:48;;;;;;;59.33;27.90;;;;;;;1.89;91.80;101497.88;10495960;28;20041;-81
2022/01/25 22:19:50;;;;;;;67.22;30.05;;;;;;;1.97;91.84;101493.78;10479417;28;20045;-81
2022/01/25 22:24:51;;;;;;;63.10;29.13;;;;;;;1.81;92.01;101485.53;10475871;28;20036;-82
2022/01/25 22:29:53;;;;;;;71.32;30.35;;;;;;;1.71;92.61;101490.47;10457859;28;20093;-82
2022/01/25 22:34:55;;;;;;;72.57;31.85;;;;;;;1.62;93.59;101479.84;10475301;28;20459;-83
2022/01/25 22:39:56;;;;;;;73.60;31.80;;;;;;;1.84;92.21;101483.03;10486931;28;20065;-83
2022/01/25 22:44:58;;;;;;;70.43;30.30;;;;;;;1.90;91.79;101472.81;10492744;28;20044;-82
2022/01/25 22:49:59;;;;;;;79.47;33.33;;;;;;;1.70;92.53;101467.97;10491748;28;20465;-82
2022/01/25 22:55:05;;;;;;;67.57;29.95;;;;;;;1.72;92.82;101462.81;10490047;28;20513;-82
2022/01/25 23:00:32;;;;;;;79.47;31.45;;;;;;;1.67;93.20;101462.69;10496837;28;20060;-81
2022/01/25 23:05:39;;;;;;;68.45;29.08;;;;;;;1.86;92.58;101458.00;10490097;28;20091;-81
2022/01/25 23:10:41;;;;;;;81.53;31.05;;;;;;;1.79;91.71;101469.94;10500027;28;20049;-79
2022/01/25 23:15:43;;;;;;;65.68;29.33;;;;;;;1.63;93.63;101468.63;10472874;28;20040;-81
2022/01/25 23:20:51;;;;;;;65.17;28.10;;;;;;;1.79;91.99;101474.25;10473862;28;20131;-80
2022/01/25 23:25:52;;;;;;;67.43;29.00;;;;;;;1.77;92.23;101463.81;10477041;28;20037;-81
2022/01/25 23:31:03;;;;;;;65.32;28.70;;;;;;;1.90;92.13;101459.84;10477640;28;20099;-81
2022/01/25 23:36:10;;;;;;;54.45;28.45;;;;;;;2.04;90.77;101458.50;10471774;28;20041;-81
2022/01/25 23:41:18;;;;;;;38.13;20.23;;;;;;;1.79;91.77;101463.88;10489144;28;20052;-81
2022/01/25 23:46:28;;;;;;;56.72;28.05;;;;;;;1.83;92.26;101453.63;10476673;28;20045;-81
2022/01/25 23:52:07;;;;;;;60.92;28.02;;;;;;;1.85;91.97;101444.16;10493070;28;20060;-80
